Time;durP1;ratioP1;P1;durP2;ratioP2;P2;SDS_P1;SDS_P2;PMS_P1;PMS_P2;Temp;Humidity;BMP_temperature;BMP_pressure;BME280_temperature;BME280_humidity;BME280_pressure;Samples;Min_cycle;Max_cycle;Signal;HPM_P1;HPM_P2
2022/11/11 00:01:58;;;;;;;7.10;1.40;;;24.30;49.00;;;;;;5033751;28;20291;-70
2022/11/11 00:04:27;;;;;;;4.20;1.50;;;24.30;49.20;;;;;;5050701;28;20180;-71
2022/11/11 00:06:54;;;;;;;3.10;1.57;;;24.30;49.80;;;;;;5051808;28;20223;-66
2022/11/11 00:09:21;;;;;;;5.10;1.47;;;24.50;49.00;;;;;;5051514;28;20630;-69
2022/11/11 00:11:49;;;;;;;6.27;1.53;;;24.60;49.00;;;;;;5051999;28;20180;-72
2022/11/11 00:14:16;;;;;;;5.70;1.20;;;24.60;49.70;;;;;;5039350;28;20192;-70
2022/11/11 00:25:09;;;;;;;3.20;1.30;;;25.20;48.00;;;;;;5050040;28;20183;-69
2022/11/11 00:27:39;;;;;;;6.33;1.10;;;25.20;48.50;;;;;;5051298;28;20188;-71
2022/11/11 00:30:07;;;;;;;3.40;1.43;;;25.20;48.30;;;;;;5051419;28;21090;-75
2022/11/11 00:32:34;;;;;;;4.30;1.50;;;25.20;48.10;;;;;;5051557;28;20172;-69
2022/11/11 00:38:57;;;;;;;5.10;1.43;;;24.70;49.70;;;;;;5017993;28;20183;-73
2022/11/11 00:41:00;;;;;;;1.83;1.30;;;24.30;49.70;;;;;;5002465;28;20224;-69
2022/11/11 00:43:27;;;;;;;2.97;1.20;;;24.20;50.50;;;;;;5037655;28;20196;-73
2022/11/11 00:50:57;;;;;;;4.90;1.10;;;24.60;49.80;;;;;;5055202;28;20588;-75
2022/11/11 00:51:28;;;;;;;8.50;1.37;;;24.20;50.20;;;;;;5043541;28;20235;-73
2022/11/11 00:53:56;;;;;;;3.20;1.63;;;24.10;50.80;;;;;;5050608;28;20184;-74
2022/11/11 00:56:24;;;;;;;7.07;1.47;;;24.30;50.80;;;;;;5055749;28;20176;-73
2022/11/11 00:58:52;;;;;;;4.03;1.40;;;24.40;51.10;;;;;;5055212;28;20651;-73
2022/11/11 01:01:20;;;;;;;6.57;1.70;;;24.80;49.80;;;;;;5055174;28;20214;-69
2022/11/11 01:03:47;;;;;;;4.30;1.40;;;24.80;49.40;;;;;;5055620;28;20187;-73
2022/11/11 01:06:15;;;;;;;5.13;1.40;;;25.00;49.30;;;;;;5055318;28;20184;-70
2022/11/11 01:08:42;;;;;;;4.50;1.50;;;24.80;49.20;;;;;;5055800;28;20176;-70
2022/11/11 01:11:15;;;;;;;5.17;1.50;;;24.80;49.80;;;;;;5055310;28;20187;-74
2022/11/11 01:13:43;;;;;;;6.47;1.50;;;24.80;49.00;;;;;;5054103;28;20244;-73
2022/11/11 01:16:17;;;;;;;5.87;1.40;;;24.70;49.60;;;;;;5050047;28;20282;-73
2022/11/11 01:18:44;;;;;;;5.87;1.50;;;25.20;48.60;;;;;;5054028;28;20295;-70
2022/11/11 01:21:18;;;;;;;4.00;1.73;;;25.00;48.70;;;;;;5054424;28;20215;-75
2022/11/11 01:23:47;;;;;;;4.53;1.37;;;24.80;48.70;;;;;;5054852;28;20632;-74
2022/11/11 01:26:18;;;;;;;4.70;1.53;;;24.60;49.50;;;;;;5055453;28;20317;-72
2022/11/11 01:28:48;;;;;;;5.67;1.70;;;24.80;49.30;;;;;;5054692;28;20173;-71
2022/11/11 01:31:18;;;;;;;6.13;1.90;;;25.20;49.20;;;;;;5055046;28;20179;-74
2022/11/11 01:33:45;;;;;;;6.33;1.77;;;25.50;48.70;;;;;;5055186;28;20195;-75
2022/11/11 01:36:16;;;;;;;6.93;2.30;;;25.70;48.90;;;;;;5054527;28;20195;-74
2022/11/11 01:38:44;;;;;;;9.43;2.43;;;25.30;49.30;;;;;;5054629;28;20557;-73
2022/11/11 01:41:32;;;;;;;5.53;1.60;;;25.20;50.10;;;;;;5036929;28;20203;-73
2022/11/11 01:44:10;;;;;;;7.70;2.03;;;25.50;50.10;;;;;;5055547;28;20555;-72
2022/11/11 01:46:45;;;;;;;7.17;1.80;;;25.80;49.20;;;;;;5057031;28;20286;-70
2022/11/11 01:49:28;;;;;;;7.50;1.87;;;26.10;49.40;;;;;;5054926;28;20183;-70
2022/11/11 01:52:19;;;;;;;4.47;1.60;;;25.60;50.40;;;;;;5054666;28;20172;-70
2022/11/11 01:54:54;;;;;;;7.70;1.97;;;25.80;49.80;;;;;;5054727;28;20184;-70
2022/11/11 01:57:46;;;;;;;10.00;1.67;;;26.00;49.90;;;;;;5053718;28;20179;-69
2022/11/11 02:00:16;;;;;;;4.17;1.53;;;25.90;49.00;;;;;;5054133;28;20179;-69
2022/11/11 02:02:54;;;;;;;7.23;2.00;;;25.90;49.80;;;;;;5054483;28;20219;-69
2022/11/11 02:05:44;;;;;;;6.07;2.03;;;26.10;49.50;;;;;;5054554;28;20176;-70
2022/11/11 02:08:31;;;;;;;6.93;1.70;;;26.10;48.40;;;;;;5054560;28;20202;-68
2022/11/11 02:11:10;;;;;;;5.20;1.80;;;25.80;49.70;;;;;;5053917;28;20553;-68
2022/11/11 02:16:28;;;;;;;3.97;1.40;;;25.60;49.60;;;;;;5054297;28;20218;-69
2022/11/11 02:18:56;;;;;;;5.47;1.60;;;25.20;50.40;;;;;;5042097;28;20263;-68
2022/11/11 02:21:36;;;;;;;8.83;1.63;;;25.00;51.40;;;;;;5053627;28;20215;-69
2022/11/11 02:24:15;;;;;;;6.03;4.30;;;24.80;51.20;;;;;;5054152;28;20183;-68
2022/11/11 02:26:44;;;;;;;6.97;2.07;;;24.80;51.60;;;;;;5054075;28;20604;-68
2022/11/11 02:29:16;;;;;;;3.67;1.90;;;24.80;51.60;;;;;;5053300;28;20179;-68
2022/11/11 02:31:43;;;;;;;5.17;1.30;;;25.20;50.20;;;;;;5053080;28;20234;-69
2022/11/11 02:34:11;;;;;;;4.57;1.67;;;25.20;50.50;;;;;;5048252;28;20172;-70
2022/11/11 02:36:39;;;;;;;6.67;1.90;;;24.80;51.20;;;;;;5052880;28;20657;-69
2022/11/11 02:39:07;;;;;;;13.23;2.10;;;24.70;51.40;;;;;;5053883;28;20226;-70
2022/11/11 02:44:19;;;;;;;8.07;2.13;;;24.70;51.70;;;;;;5053437;28;20226;-71
2022/11/11 02:46:47;;;;;;;7.13;2.17;;;25.00;51.30;;;;;;5053186;28;20176;-68
2022/11/11 02:49:14;;;;;;;5.47;1.67;;;24.90;51.50;;;;;;5053434;28;20250;-70
2022/11/11 02:51:41;;;;;;;7.40;1.70;;;25.00;51.10;;;;;;5053528;28;20171;-69
2022/11/11 02:54:09;;;;;;;4.00;1.40;;;25.10;51.40;;;;;;5053196;28;20180;-69
2022/11/11 02:59:21;;;;;;;5.83;1.37;;;24.80;52.40;;;;;;5055709;28;20194;-73
2022/11/11 03:01:49;;;;;;;5.00;1.73;;;25.00;51.60;;;;;;5059325;28;20218;-71
2022/11/11 03:04:16;;;;;;;6.00;1.70;;;25.40;50.90;;;;;;5051702;28;20211;-72
2022/11/11 03:06:43;;;;;;;5.60;1.73;;;25.00;51.40;;;;;;5062431;28;20199;-74
2022/11/11 03:09:11;;;;;;;7.07;1.57;;;25.00;52.10;;;;;;5064079;28;20183;-70
2022/11/11 03:11:38;;;;;;;6.87;1.50;;;25.30;51.50;;;;;;5066155;28;20282;-70
2022/11/11 03:14:06;;;;;;;4.37;1.50;;;25.50;50.90;;;;;;5055613;28;20187;-75
2022/11/11 03:19:20;;;;;;;4.67;1.60;;;25.60;49.80;;;;;;5053198;28;20171;-71
2022/11/11 03:21:47;;;;;;;5.13;1.30;;;25.80;48.90;;;;;;5052935;28;20681;-73
2022/11/11 03:24:15;;;;;;;7.37;1.67;;;25.80;48.40;;;;;;5052949;28;20660;-70
2022/11/11 03:26:42;;;;;;;6.80;1.50;;;26.30;47.20;;;;;;5056355;28;20186;-71
2022/11/11 03:29:09;;;;;;;6.43;1.30;;;26.30;46.30;;;;;;5063095;28;20235;-71
2022/11/11 03:31:37;;;;;;;4.63;1.33;;;26.40;46.60;;;;;;5060134;28;20213;-75
2022/11/11 03:34:19;;;;;;;4.53;1.00;;;25.90;47.60;;;;;;5055630;28;20183;-72
2022/11/11 03:39:32;;;;;;;4.47;1.40;;;25.90;47.50;;;;;;5033731;28;20593;-70
2022/11/11 03:42:00;;;;;;;4.33;1.27;;;25.50;48.30;;;;;;5052770;28;20664;-70
2022/11/11 03:44:28;;;;;;;5.47;1.37;;;25.40;49.10;;;;;;5052066;28;20673;-70
2022/11/11 03:46:56;;;;;;;4.97;1.37;;;25.60;48.60;;;;;;5052687;28;20176;-71
2022/11/11 03:49:23;;;;;;;6.23;1.60;;;25.50;48.20;;;;;;5052345;28;20175;-73
2022/11/11 03:51:50;;;;;;;4.73;1.30;;;25.50;48.70;;;;;;5052312;28;20275;-72
2022/11/11 03:54:18;;;;;;;6.33;1.53;;;25.40;49.10;;;;;;5048810;28;20176;-72
2022/11/11 03:56:45;;;;;;;3.10;1.17;;;25.30;49.20;;;;;;5060556;28;20190;-74
2022/11/11 03:59:13;;;;;;;3.20;1.17;;;25.30;49.40;;;;;;5065260;28;20180;-73
2022/11/11 04:18:13;;;;;;;4.77;1.40;;;26.70;46.90;;;;;;5051444;28;20546;-70
2022/11/11 04:23:28;;;;;;;6.57;1.73;;;26.10;48.20;;;;;;5044217;28;20226;-69
2022/11/11 04:25:59;;;;;;;6.60;1.50;;;25.50;49.90;;;;;;5052415;28;20179;-69
2022/11/11 04:31:12;;;;;;;4.13;1.40;;;24.90;51.40;;;;;;5051964;28;20637;-69
2022/11/11 04:33:45;;;;;;;5.93;1.53;;;24.70;52.20;;;;;;5053642;28;20183;-72
2022/11/11 04:36:16;;;;;;;5.27;1.80;;;24.60;52.50;;;;;;5033567;28;20215;-73
2022/11/11 04:41:29;;;;;;;5.67;1.30;;;24.10;53.60;;;;;;5053605;28;20219;-72
2022/11/11 04:47:00;;;;;;;7.03;1.77;;;23.90;54.90;;;;;;5043910;28;20595;-72
2022/11/11 04:49:34;;;;;;;3.77;1.30;;;23.80;56.20;;;;;;5052129;28;20231;-71
2022/11/11 04:57:59;;;;;;;5.87;1.60;;;23.60;57.50;;;;;;5051941;28;20194;-70
2022/11/11 05:00:26;;;;;;;7.60;1.90;;;23.40;57.90;;;;;;5051310;28;20187;-69
2022/11/11 05:11:11;;;;;;;5.10;1.40;;;23.10;59.00;;;;;;5051583;28;20194;-68
2022/11/11 05:22:12;;;;;;;4.87;1.33;;;23.00;59.40;;;;;;5045776;28;20225;-68
2022/11/11 05:27:25;;;;;;;6.27;2.50;;;22.90;59.90;;;;;;5051860;28;20183;-69
2022/11/11 05:29:53;;;;;;;10.30;4.13;;;22.90;59.80;;;;;;5051465;28;20653;-74
2022/11/11 05:32:22;;;;;;;8.23;4.60;;;23.00;59.90;;;;;;5054346;28;20221;-72
2022/11/11 05:34:50;;;;;;;9.60;3.67;;;22.90;60.60;;;;;;5055110;28;20172;-74
2022/11/11 05:37:17;;;;;;;9.50;3.23;;;22.90;60.80;;;;;;5053234;28;20287;-73
2022/11/11 05:39:45;;;;;;;6.83;3.40;;;22.90;60.80;;;;;;5055056;28;20190;-69
2022/11/11 05:42:13;;;;;;;9.83;2.47;;;22.90;60.90;;;;;;5054911;28;20266;-72
2022/11/11 05:44:41;;;;;;;6.43;1.80;;;22.80;61.20;;;;;;5052855;28;20216;-72
2022/11/11 05:47:08;;;;;;;8.30;2.20;;;22.80;62.00;;;;;;5052963;28;20187;-72
2022/11/11 05:49:35;;;;;;;3.77;1.87;;;22.80;61.60;;;;;;5068697;28;20590;-72
2022/11/11 05:52:04;;;;;;;12.80;4.23;;;22.70;62.00;;;;;;5053911;28;20192;-72
2022/11/11 05:54:32;;;;;;;10.17;2.03;;;22.80;62.60;;;;;;5053313;28;20207;-75
2022/11/11 05:56:59;;;;;;;5.97;1.50;;;22.70;63.90;;;;;;5054817;28;20598;-74
2022/11/11 05:59:27;;;;;;;7.83;1.80;;;22.60;65.20;;;;;;5054404;28;20180;-75
2022/11/11 06:01:54;;;;;;;4.80;1.90;;;22.50;67.00;;;;;;5054077;28;20214;-72
2022/11/11 06:04:22;;;;;;;8.33;1.83;;;22.40;67.60;;;;;;5054818;28;20254;-75
2022/11/11 06:06:49;;;;;;;10.20;2.17;;;22.50;68.50;;;;;;5054013;28;20630;-73
2022/11/11 06:09:17;;;;;;;5.90;2.00;;;22.50;68.60;;;;;;5054252;28;20626;-73
2022/11/11 06:11:44;;;;;;;12.20;1.70;;;22.60;68.20;;;;;;5054271;28;20183;-74
2022/11/11 06:14:12;;;;;;;11.83;2.43;;;22.60;67.20;;;;;;5054087;28;20652;-74
2022/11/11 06:16:39;;;;;;;7.83;2.13;;;22.40;67.20;;;;;;5051320;28;20184;-74
2022/11/11 06:19:06;;;;;;;6.30;2.40;;;22.50;66.90;;;;;;5053034;28;20286;-73
2022/11/11 06:21:55;;;;;;;7.13;2.53;;;22.50;66.60;;;;;;5053366;28;20210;-73
2022/11/11 06:24:21;;;;;;;10.53;2.50;;;22.50;66.10;;;;;;5050844;28;20191;-73
2022/11/11 06:26:48;;;;;;;7.87;2.63;;;22.50;65.80;;;;;;5046130;28;20180;-74
2022/11/11 06:29:15;;;;;;;6.90;2.43;;;22.50;65.50;;;;;;5053716;28;20271;-73
2022/11/11 06:31:44;;;;;;;5.83;2.60;;;22.60;65.30;;;;;;5052815;28;20533;-71
2022/11/11 06:34:11;;;;;;;10.40;2.70;;;22.70;65.50;;;;;;5051343;28;20637;-73
2022/11/11 06:36:39;;;;;;;10.03;2.80;;;22.80;65.20;;;;;;5053736;28;20180;-73
2022/11/11 06:39:06;;;;;;;10.70;2.87;;;22.70;65.40;;;;;;5053836;28;20171;-72
2022/11/11 06:41:33;;;;;;;8.63;2.60;;;22.80;65.30;;;;;;5048897;28;20307;-73
2022/11/11 06:44:01;;;;;;;9.87;3.40;;;22.60;65.60;;;;;;5053643;28;20237;-73
2022/11/11 06:46:29;;;;;;;9.50;2.63;;;22.60;65.70;;;;;;5052311;28;20183;-68
2022/11/11 06:48:56;;;;;;;9.33;2.90;;;22.60;66.10;;;;;;5052828;28;20544;-69
2022/11/11 06:51:23;;;;;;;8.27;2.70;;;22.70;66.40;;;;;;5053375;28;20179;-68
2022/11/11 06:53:51;;;;;;;11.30;2.97;;;22.70;66.10;;;;;;5053761;28;20191;-69
2022/11/11 06:56:18;;;;;;;8.10;2.93;;;22.50;65.80;;;;;;5053235;28;20180;-67
2022/11/11 06:58:46;;;;;;;6.17;2.93;;;22.50;65.40;;;;;;5053404;28;20184;-71
2022/11/11 07:01:13;;;;;;;7.83;3.23;;;22.50;65.00;;;;;;5052800;28;20239;-69
2022/11/11 07:03:41;;;;;;;7.47;2.63;;;22.60;65.30;;;;;;5052382;28;20184;-71
2022/11/11 07:06:08;;;;;;;8.77;3.10;;;22.60;64.90;;;;;;5052858;28;20271;-70
2022/11/11 07:08:35;;;;;;;3.40;1.60;;;22.80;64.60;;;;;;5053360;28;20190;-68
2022/11/11 07:11:03;;;;;;;5.43;2.10;;;22.90;63.50;;;;;;5052838;28;20583;-67
2022/11/11 07:13:30;;;;;;;3.17;1.90;;;22.90;63.80;;;;;;5052287;28;20188;-68
2022/11/11 07:15:57;;;;;;;3.83;1.67;;;23.30;62.90;;;;;;5051740;28;20230;-68
2022/11/11 07:18:25;;;;;;;3.07;1.70;;;23.40;62.50;;;;;;5051025;28;20187;-69
2022/11/11 07:20:52;;;;;;;1.87;1.30;;;23.50;62.00;;;;;;5052976;28;20184;-68
2022/11/11 07:23:19;;;;;;;2.80;1.53;;;23.40;62.50;;;;;;5052216;28;20215;-68
2022/11/11 07:25:47;;;;;;;2.67;1.20;;;23.30;63.10;;;;;;5052677;28;20263;-69
2022/11/11 07:28:14;;;;;;;1.40;1.30;;;23.10;63.50;;;;;;5052535;28;20180;-68
2022/11/11 07:30:42;;;;;;;3.77;1.40;;;22.80;64.80;;;;;;5051855;28;20182;-68
2022/11/11 07:33:09;;;;;;;2.57;1.37;;;22.70;65.50;;;;;;5050450;28;20647;-69
2022/11/11 07:35:37;;;;;;;5.93;1.37;;;22.60;66.00;;;;;;5052090;28;20630;-68
2022/11/11 07:38:04;;;;;;;2.50;1.20;;;22.50;66.10;;;;;;5052649;28;20203;-69
2022/11/11 07:40:31;;;;;;;1.70;1.00;;;22.50;65.90;;;;;;5052256;28;20218;-68
2022/11/11 07:42:58;;;;;;;1.77;1.10;;;22.50;65.90;;;;;;5052670;28;20219;-69
2022/11/11 07:45:26;;;;;;;2.30;1.10;;;22.50;65.50;;;;;;5051709;28;20216;-69
2022/11/11 07:47:53;;;;;;;1.73;1.00;;;22.50;65.70;;;;;;5051066;28;20646;-69
2022/11/11 07:50:20;;;;;;;2.27;1.07;;;22.40;65.60;;;;;;5052897;28;20172;-68
2022/11/11 07:52:51;;;;;;;3.00;1.10;;;22.50;65.60;;;;;;5049076;28;20172;-69
2022/11/11 07:55:18;;;;;;;3.73;1.13;;;22.50;65.70;;;;;;5051616;28;20212;-67
2022/11/11 07:57:46;;;;;;;2.10;1.30;;;22.50;65.70;;;;;;5052017;28;20251;-67
2022/11/11 08:00:13;;;;;;;2.70;0.90;;;22.50;65.40;;;;;;5052273;28;20176;-67
2022/11/11 08:02:45;;;;;;;2.10;1.53;;;22.50;65.60;;;;;;5051179;28;20214;-71
2022/11/11 08:05:13;;;;;;;3.00;1.80;;;22.40;65.80;;;;;;5067862;28;20677;-68
2022/11/11 08:07:41;;;;;;;6.83;1.73;;;22.30;66.20;;;;;;5052437;28;20206;-68
2022/11/11 08:10:10;;;;;;;3.33;1.60;;;22.40;66.20;;;;;;5052256;28;20226;-67
2022/11/11 08:15:23;;;;;;;4.10;1.93;;;22.30;66.40;;;;;;5052533;28;20190;-67
2022/11/11 08:17:50;;;;;;;4.63;2.47;;;22.30;66.80;;;;;;5051850;28;20274;-70
2022/11/11 08:20:18;;;;;;;4.63;2.50;;;22.20;66.90;;;;;;5052236;28;20184;-68
2022/11/11 08:22:45;;;;;;;4.63;2.10;;;22.20;66.90;;;;;;5052546;28;20218;-67
2022/11/11 08:25:13;;;;;;;5.63;1.30;;;22.10;67.10;;;;;;5051840;28;20168;-67
2022/11/11 08:27:41;;;;;;;4.97;1.30;;;22.00;67.20;;;;;;5051249;28;20192;-68
2022/11/11 08:30:09;;;;;;;2.83;1.30;;;22.00;67.70;;;;;;5049041;28;20172;-67
2022/11/11 08:32:37;;;;;;;5.10;2.20;;;21.90;67.80;;;;;;5051697;28;20634;-72
2022/11/11 08:35:04;;;;;;;6.67;1.90;;;21.90;67.90;;;;;;5052454;28;20525;-67
2022/11/11 08:37:32;;;;;;;3.57;1.80;;;21.80;68.00;;;;;;5052121;28;20214;-69
2022/11/11 08:39:59;;;;;;;4.77;1.60;;;21.80;68.20;;;;;;5052045;28;20180;-72
2022/11/11 08:42:27;;;;;;;3.50;1.37;;;21.80;68.50;;;;;;5049616;28;20212;-68
2022/11/11 08:44:54;;;;;;;2.40;1.27;;;21.80;68.50;;;;;;5052135;28;20249;-71
2022/11/11 08:47:23;;;;;;;2.77;1.33;;;21.80;68.50;;;;;;5051695;28;20178;-67
2022/11/11 08:49:51;;;;;;;2.27;1.53;;;21.80;68.70;;;;;;5052118;28;20168;-67
2022/11/11 08:52:18;;;;;;;2.20;1.30;;;21.70;68.70;;;;;;5050791;28;20188;-72
2022/11/11 08:54:45;;;;;;;3.50;1.33;;;21.70;68.70;;;;;;5051942;28;20234;-68
2022/11/11 08:57:13;;;;;;;4.13;1.30;;;21.70;69.00;;;;;;5051463;28;20188;-68
2022/11/11 08:59:40;;;;;;;2.83;1.80;;;21.70;68.80;;;;;;5051978;28;20184;-71
2022/11/11 09:02:11;;;;;;;4.23;1.93;;;21.70;68.90;;;;;;5051300;28;20273;-74
2022/11/11 09:04:39;;;;;;;3.73;1.70;;;21.60;69.10;;;;;;5051537;28;20705;-73
2022/11/11 09:07:11;;;;;;;7.17;2.23;;;21.70;69.10;;;;;;5056034;28;20286;-67
2022/11/11 09:09:38;;;;;;;2.27;1.50;;;21.70;69.40;;;;;;5055427;28;20183;-74
2022/11/11 09:12:05;;;;;;;7.53;2.00;;;21.60;69.70;;;;;;5055381;28;20199;-69
2022/11/11 09:14:33;;;;;;;4.40;2.07;;;21.50;69.80;;;;;;5055661;28;20326;-70
2022/11/11 09:17:00;;;;;;;2.10;1.60;;;21.50;70.20;;;;;;5055649;28;20184;-68
2022/11/11 09:19:27;;;;;;;5.33;1.73;;;21.40;70.20;;;;;;5071014;28;20184;-68
2022/11/11 09:21:55;;;;;;;4.00;1.77;;;21.50;70.00;;;;;;5055639;28;20673;-68
2022/11/11 09:24:22;;;;;;;2.97;1.70;;;21.30;70.00;;;;;;5054811;28;20191;-70
2022/11/11 09:26:50;;;;;;;4.93;2.20;;;21.30;70.30;;;;;;5055498;28;20263;-67
2022/11/11 09:29:18;;;;;;;2.17;1.30;;;21.30;70.30;;;;;;5055442;28;20661;-69
2022/11/11 09:31:49;;;;;;;2.73;1.53;;;21.30;70.50;;;;;;5069550;28;20263;-68
2022/11/11 09:34:16;;;;;;;7.73;2.30;;;21.20;70.80;;;;;;5055366;28;20526;-69
2022/11/11 09:36:44;;;;;;;9.63;2.43;;;21.20;70.70;;;;;;5052760;28;20183;-68
2022/11/11 09:39:11;;;;;;;5.20;2.10;;;21.10;70.90;;;;;;5053060;28;20527;-70
2022/11/11 09:41:50;;;;;;;4.60;2.10;;;21.00;71.00;;;;;;5055423;28;20207;-68
2022/11/11 09:44:44;;;;;;;5.07;1.67;;;21.00;71.30;;;;;;5044006;28;20617;-70
2022/11/11 09:47:18;;;;;;;4.50;1.70;;;21.00;71.40;;;;;;5011794;28;20196;-70
2022/11/11 09:49:52;;;;;;;8.50;2.00;;;21.10;71.40;;;;;;5054946;28;20164;-67
2022/11/11 09:52:28;;;;;;;2.97;1.70;;;21.00;71.50;;;;;;5052591;28;20218;-67
2022/11/11 09:55:11;;;;;;;6.57;1.57;;;21.00;71.40;;;;;;5050476;28;20243;-69
2022/11/11 09:57:56;;;;;;;4.27;1.67;;;21.00;71.50;;;;;;5054136;28;20191;-67
2022/11/11 10:00:29;;;;;;;6.90;2.87;;;21.00;71.60;;;;;;5054222;28;20666;-68
2022/11/11 10:03:17;;;;;;;10.30;7.67;;;20.90;71.80;;;;;;5053108;28;20682;-68
2022/11/11 10:05:54;;;;;;;8.03;5.57;;;20.80;72.00;;;;;;5054668;28;20262;-67
2022/11/11 10:08:31;;;;;;;7.77;4.73;;;20.80;72.40;;;;;;5040847;28;20220;-67
2022/11/11 10:11:04;;;;;;;4.63;2.50;;;20.70;72.70;;;;;;5053640;28;20546;-67
2022/11/11 10:13:36;;;;;;;5.33;3.57;;;20.70;72.20;;;;;;5023366;28;20203;-67
2022/11/11 10:16:32;;;;;;;4.63;3.27;;;20.70;71.80;;;;;;5053801;28;20233;-75
2022/11/11 10:19:11;;;;;;;7.37;2.43;;;20.80;71.80;;;;;;5054558;28;20179;-74
2022/11/11 10:21:56;;;;;;;3.47;1.80;;;20.80;71.90;;;;;;5054504;28;20203;-73
2022/11/11 10:24:31;;;;;;;5.13;1.93;;;20.80;71.90;;;;;;5054252;28;20638;-75
2022/11/11 10:27:11;;;;;;;4.60;1.70;;;20.70;72.00;;;;;;5053998;28;20190;-73
2022/11/11 10:29:43;;;;;;;8.57;1.80;;;20.70;71.90;;;;;;5054539;28;20188;-74
2022/11/11 10:32:19;;;;;;;4.13;1.83;;;20.70;72.00;;;;;;5053265;28;20184;-74
2022/11/11 10:34:47;;;;;;;7.47;1.60;;;20.70;72.10;;;;;;5053586;28;20539;-73
2022/11/11 10:37:27;;;;;;;4.37;1.90;;;20.70;72.10;;;;;;5053224;28;20179;-73
2022/11/11 10:40:00;;;;;;;3.67;1.80;;;20.60;72.20;;;;;;5043594;28;20179;-74
2022/11/11 10:42:28;;;;;;;3.67;2.13;;;20.60;72.60;;;;;;5053756;28;20207;-73
2022/11/11 10:45:02;;;;;;;5.17;2.60;;;20.60;72.60;;;;;;5053406;28;20633;-73
2022/11/11 10:47:38;;;;;;;5.37;2.63;;;20.60;72.50;;;;;;5053119;28;20238;-73
2022/11/11 10:50:31;;;;;;;8.00;3.20;;;20.50;72.80;;;;;;5068833;28;20184;-73
2022/11/11 10:53:42;;;;;;;6.27;3.00;;;20.50;72.80;;;;;;5050986;28;20624;-73
2022/11/11 10:56:09;;;;;;;10.20;4.70;;;20.40;72.90;;;;;;5021301;28;20220;-74
2022/11/11 10:59:05;;;;;;;13.57;8.77;;;20.30;73.50;;;;;;5049490;28;20176;-70
2022/11/11 11:01:42;;;;;;;37.53;31.43;;;20.30;73.60;;;;;;5004186;28;20231;-74
2022/11/11 11:04:26;;;;;;;24.30;17.50;;;20.30;73.50;;;;;;5051375;28;20253;-74
2022/11/11 11:06:54;;;;;;;34.87;25.20;;;20.30;73.60;;;;;;5041114;28;20179;-74
2022/11/11 11:09:40;;;;;;;21.40;15.57;;;20.30;73.70;;;;;;5052993;28;20180;-74
2022/11/11 11:12:30;;;;;;;18.73;13.63;;;20.20;73.90;;;;;;5051880;28;20184;-73
2022/11/11 11:15:04;;;;;;;31.27;21.10;;;20.20;74.00;;;;;;5052755;28;20519;-71
2022/11/11 11:17:44;;;;;;;28.43;22.10;;;20.20;74.00;;;;;;5044628;28;20184;-69
2022/11/11 11:20:19;;;;;;;26.37;16.43;;;20.20;74.20;;;;;;5053318;28;20241;-73
2022/11/11 11:23:01;;;;;;;19.87;13.23;;;20.20;74.20;;;;;;5051269;28;20303;-68
2022/11/11 11:25:32;;;;;;;17.40;12.60;;;20.10;74.50;;;;;;5052411;28;20190;-74
2022/11/11 11:28:12;;;;;;;14.97;6.63;;;20.10;74.60;;;;;;5051370;28;20585;-69
2022/11/11 11:30:40;;;;;;;12.23;6.13;;;20.10;74.50;;;;;;5042761;28;20658;-76
2022/11/11 11:33:09;;;;;;;9.87;6.33;;;20.10;74.40;;;;;;5052288;28;20654;-74
2022/11/11 11:35:44;;;;;;;14.40;8.90;;;20.10;74.50;;;;;;5052305;28;20180;-72
2022/11/11 11:38:12;;;;;;;11.67;7.53;;;20.10;74.40;;;;;;5052385;28;20179;-71
2022/11/11 11:40:50;;;;;;;16.00;7.40;;;20.00;74.70;;;;;;5038819;28;20187;-68
2022/11/11 11:43:41;;;;;;;10.67;6.63;;;20.00;75.00;;;;;;5050665;28;20191;-75
2022/11/11 11:46:28;;;;;;;11.97;7.33;;;20.00;74.90;;;;;;5054691;28;20228;-72
2022/11/11 11:49:22;;;;;;;13.97;8.33;;;20.00;74.80;;;;;;5047680;28;20180;-74
2022/11/11 11:51:56;;;;;;;14.93;9.20;;;19.90;75.00;;;;;;5052851;28;20219;-76
2022/11/11 11:54:42;;;;;;;15.57;9.40;;;19.90;75.30;;;;;;5045432;28;20532;-68
2022/11/11 11:57:43;;;;;;;15.60;9.10;;;19.90;75.40;;;;;;5051808;28;20200;-68
2022/11/11 12:00:20;;;;;;;17.07;9.20;;;19.80;75.50;;;;;;5033649;28;20187;-68
2022/11/11 12:02:57;;;;;;;14.47;8.20;;;19.80;76.00;;;;;;5047853;28;20224;-68
2022/11/11 12:05:24;;;;;;;11.53;7.90;;;19.70;76.20;;;;;;5043601;28;20190;-67
2022/11/11 12:08:15;;;;;;;14.27;8.20;;;19.60;76.60;;;;;;5048391;28;20267;-67
2022/11/11 12:10:46;;;;;;;8.33;5.87;;;19.50;77.00;;;;;;5052558;28;20222;-67
2022/11/11 12:13:37;;;;;;;9.77;6.00;;;19.40;77.40;;;;;;5049970;28;20241;-73
2022/11/11 12:16:25;;;;;;;10.37;5.13;;;19.40;77.60;;;;;;5020955;28;20192;-68
2022/11/11 12:19:20;;;;;;;6.33;3.90;;;19.30;78.10;;;;;;5051361;28;20716;-69
2022/11/11 12:21:56;;;;;;;5.17;3.10;;;19.20;78.40;;;;;;5051415;28;20206;-74
2022/11/11 12:24:41;;;;;;;5.50;3.33;;;19.20;78.60;;;;;;5051734;28;20190;-68
2022/11/11 12:27:20;;;;;;;5.17;3.40;;;19.10;79.00;;;;;;5051931;28;20188;-69
2022/11/11 12:30:28;;;;;;;6.53;3.00;;;19.00;79.20;;;;;;5052034;28;20176;-68
2022/11/11 12:33:05;;;;;;;4.83;2.80;;;19.10;79.60;;;;;;5052021;28;20313;-68
2022/11/11 12:35:45;;;;;;;5.70;3.17;;;19.10;79.80;;;;;;5051815;28;20176;-68
2022/11/11 12:38:35;;;;;;;8.77;3.23;;;19.10;79.80;;;;;;5051777;28;20226;-68
2022/11/11 12:41:11;;;;;;;5.33;2.40;;;19.10;79.90;;;;;;5054163;28;20184;-67
2022/11/11 12:44:06;;;;;;;4.27;2.10;;;19.10;80.10;;;;;;5056173;28;20191;-68
2022/11/11 12:46:58;;;;;;;4.60;2.50;;;19.00;80.30;;;;;;5016149;28;20201;-68
2022/11/11 12:49:25;;;;;;;5.33;2.10;;;19.10;80.20;;;;;;5004886;28;20266;-68
2022/11/11 12:52:13;;;;;;;4.33;2.20;;;19.00;80.30;;;;;;5016326;28;20191;-68
2022/11/11 12:54:55;;;;;;;5.93;2.40;;;19.00;80.40;;;;;;5016355;28;20268;-67
2022/11/11 12:57:29;;;;;;;9.40;2.00;;;19.00;80.60;;;;;;5015894;28;20640;-67
2022/11/11 13:00:02;;;;;;;4.97;2.00;;;19.00;80.70;;;;;;5003249;28;20181;-68
2022/11/11 13:02:50;;;;;;;4.03;2.13;;;19.00;80.50;;;;;;5015931;28;20225;-68
2022/11/11 13:05:33;;;;;;;8.77;1.87;;;19.00;80.50;;;;;;5016196;28;20183;-69
2022/11/11 13:08:37;;;;;;;5.67;1.97;;;19.00;80.50;;;;;;5015434;28;20207;-70
2022/11/11 13:11:22;;;;;;;4.50;2.17;;;19.00;80.50;;;;;;5015973;28;20276;-75
2022/11/11 13:13:59;;;;;;;3.87;2.03;;;19.00;80.50;;;;;;5015908;28;20181;-73
2022/11/11 13:16:26;;;;;;;3.07;1.53;;;18.90;80.50;;;;;;5016008;28;20562;-68
2022/11/11 13:18:59;;;;;;;3.67;1.50;;;18.90;80.80;;;;;;5015407;28;20185;-74
2022/11/11 13:21:36;;;;;;;3.77;1.70;;;18.90;80.80;;;;;;5015593;28;20236;-70
2022/11/11 13:24:05;;;;;;;3.90;1.87;;;18.90;80.70;;;;;;5015938;28;20184;-70
2022/11/11 13:26:54;;;;;;;3.87;1.97;;;18.90;80.60;;;;;;5015823;28;20239;-68
2022/11/11 13:29:36;;;;;;;2.37;1.50;;;18.90;80.60;;;;;;5015515;28;20513;-72
2022/11/11 13:32:09;;;;;;;3.77;1.70;;;18.90;80.70;;;;;;5015404;28;20178;-71
2022/11/11 13:34:37;;;;;;;3.87;1.60;;;18.90;81.00;;;;;;5015924;28;20259;-72
2022/11/11 13:37:08;;;;;;;2.60;1.67;;;18.80;80.80;;;;;;5015565;28;20186;-68
2022/11/11 13:39:45;;;;;;;2.67;1.73;;;18.80;81.10;;;;;;5015494;28;20656;-69
2022/11/11 13:42:22;;;;;;;2.20;1.60;;;18.80;81.20;;;;;;5015073;28;20567;-68
2022/11/11 13:44:53;;;;;;;2.47;1.70;;;18.80;81.50;;;;;;5032098;28;20713;-72
2022/11/11 13:47:43;;;;;;;3.90;1.80;;;18.80;81.60;;;;;;5054741;28;20182;-73
2022/11/11 13:50:30;;;;;;;6.63;2.03;;;18.80;81.80;;;;;;5054903;28;20207;-72
2022/11/11 13:53:02;;;;;;;4.67;1.80;;;18.80;81.70;;;;;;5054918;28;20187;-74
2022/11/11 13:55:35;;;;;;;3.57;1.70;;;18.70;81.70;;;;;;5046242;28;20169;-73
2022/11/11 13:58:04;;;;;;;5.23;2.00;;;18.80;82.00;;;;;;5054958;28;20231;-74
2022/11/11 14:00:38;;;;;;;5.83;1.80;;;18.70;81.90;;;;;;5054617;28;20180;-68
2022/11/11 14:03:25;;;;;;;4.53;1.67;;;18.70;81.80;;;;;;5052732;28;20219;-68
2022/11/11 14:06:14;;;;;;;3.53;1.70;;;18.70;82.10;;;;;;5044851;28;20220;-71
2022/11/11 14:08:49;;;;;;;5.33;2.07;;;18.60;82.00;;;;;;5054800;28;20673;-74
2022/11/11 14:11:34;;;;;;;4.80;2.00;;;18.50;82.40;;;;;;5054518;28;20191;-74
2022/11/11 14:14:31;;;;;;;2.70;1.67;;;18.50;82.60;;;;;;5055001;28;20188;-76
2022/11/11 14:17:05;;;;;;;2.87;1.70;;;18.40;82.50;;;;;;5054226;28;20183;-70
2022/11/11 14:19:33;;;;;;;2.23;1.70;;;18.30;82.70;;;;;;5054107;28;20249;-68
2022/11/11 14:22:03;;;;;;;4.03;1.70;;;18.30;82.70;;;;;;5054412;28;20231;-68
2022/11/11 14:24:35;;;;;;;2.50;1.50;;;18.30;83.30;;;;;;5042282;28;20641;-67
2022/11/11 14:27:18;;;;;;;2.67;1.67;;;18.20;83.20;;;;;;5054423;28;20184;-68
2022/11/11 14:29:54;;;;;;;4.13;1.50;;;18.20;83.40;;;;;;5054062;28;20176;-67
2022/11/11 14:32:45;;;;;;;3.40;1.63;;;18.20;83.60;;;;;;5054139;28;20274;-68
2022/11/11 14:35:33;;;;;;;3.40;1.73;;;18.20;83.60;;;;;;5054098;28;20184;-67
2022/11/11 14:38:19;;;;;;;2.03;1.57;;;18.20;83.80;;;;;;5053379;28;20187;-67
2022/11/11 14:40:46;;;;;;;2.80;1.33;;;18.20;83.70;;;;;;5050836;28;20187;-68